Accueil
METAR-TAF:

METAR-TAF

Aéroports :

Aéroport international de Khartoum

Khartoum, Soudan

latitude: 15-36N, longitude: 032-33E, altitude: 382 m

Observation

Le bulletin a été fait il y a 22 minutes, à 11:30 UTC
Vent 4 kt de nord-ouest
Température 37°C
Humidité 9%
Pression 1010 hPa
Visibilité 10 km ou plus
pas de nuages en-dessous de 1500 mètres et pas de cumulonimbus.

METAR: HSSS 231130Z 32004KT CAVOK 37/M01 Q1010 NOSIG

Heure: 14:52 (11:52 UTC)

Prévision

Le bulletin a été fait il y a 52 minutes, à 11:00 UTC
Prévision valable du 23 à 12 UTC au 24 à 18 UTC
Vent 8 kt de nord/nord-est avec des rafales jusqu'à 18 kt
Visibilité 10 km ou plus
pas de nuages en-dessous de 1500 mètres et pas de cumulonimbus.
Temporairement
du 24 à 03 UTC au 24 à 06 UTC
Visibilité: 6000 m

TAF: HSSS 231100Z 2312/2418 02008G18KT CAVOK TEMPO 2403/2406 6000 NSC

Observations et prévisions météorologiques de plus de 4000 aéroports (messages METAR et TAF).

Les stations disponibles sont représentées par des disques jaunes et rouges sur la carte.

Passer la souris dessus pour voir le nom de la station.

Cliquer dessus pour voir les observations et prévisions météorologiques.

Pour changer de carte: cliquez sur les boutons verts avec une croix noire pour zoomer, sur le bouton vert avec un tiret pour effectuer un zoom arrière, ou sur les flèches vertes pour les cartes adjacentes.


METAR-TAF: